createdAt,value
2022-11-28T00:02:22.718Z,83.45
2022-11-28T00:05:30.999Z,83.67
2022-11-28T00:08:41.118Z,83.26
2022-11-28T00:11:51.413Z,83.20
2022-11-28T00:14:59.597Z,83.20
2022-11-28T00:18:07.826Z,83.41
2022-11-28T00:21:17.594Z,83.18
2022-11-28T00:24:27.303Z,84.06
2022-11-28T00:27:35.990Z,83.98
2022-11-28T00:30:44.245Z,84.56
2022-11-28T00:33:52.916Z,84.40
2022-11-28T00:37:01.315Z,84.17
2022-11-28T00:40:12.044Z,83.94
2022-11-28T00:43:20.232Z,83.82
2022-11-28T00:46:28.957Z,83.66
2022-11-28T00:49:37.522Z,83.29
2022-11-28T00:52:45.930Z,84.21
2022-11-28T00:55:55.641Z,83.93
2022-11-28T00:59:04.980Z,84.58
2022-11-28T01:02:13.597Z,84.79
2022-11-28T01:05:21.864Z,84.98
2022-11-28T01:08:30.290Z,84.26
2022-11-28T01:11:42.019Z,84.50
2022-11-28T01:14:50.308Z,84.78
2022-11-28T01:17:58.651Z,85.37
2022-11-28T01:21:08.608Z,85.18
2022-11-28T01:24:17.823Z,84.18
2022-11-28T01:27:27.764Z,84.23
2022-11-28T01:30:36.059Z,84.10
2022-11-28T01:33:44.985Z,83.66
2022-11-28T01:36:53.338Z,83.51
2022-11-28T01:40:01.536Z,83.81
2022-11-28T01:43:12.126Z,84.44
2022-11-28T01:46:20.353Z,84.02
2022-11-28T01:49:36.507Z,83.36
2022-11-28T01:52:51.155Z,83.39
2022-11-28T01:56:07.014Z,82.95
2022-11-28T01:59:18.401Z,83.97
2022-11-28T02:02:34.772Z,83.64
2022-11-28T02:05:43.306Z,83.22
2022-11-28T02:08:52.609Z,83.67
2022-11-28T02:12:25.807Z,84.48
2022-11-28T02:16:04.344Z,84.16
2022-11-28T02:19:58.091Z,83.13
2022-11-28T02:23:19.900Z,83.48
2022-11-28T02:27:01.516Z,83.96
2022-11-28T02:30:23.255Z,83.07
2022-11-28T02:33:35.169Z,83.58
2022-11-28T02:36:54.548Z,83.40
2022-11-28T02:40:12.001Z,84.19
2022-11-28T02:43:33.929Z,83.96
2022-11-28T02:46:53.582Z,83.72
2022-11-28T02:50:11.331Z,83.78
2022-11-28T02:53:25.834Z,84.43
2022-11-28T02:56:34.142Z,83.94
2022-11-28T02:59:51.877Z,83.55
2022-11-28T03:03:37.936Z,83.51
2022-11-28T03:07:04.644Z,83.94
2022-11-28T03:10:28.237Z,83.58
2022-11-28T03:13:48.972Z,83.23
2022-11-28T03:17:14.371Z,83.63
2022-11-28T03:20:35.561Z,83.29
2022-11-28T03:23:53.021Z,83.64
2022-11-28T03:27:11.300Z,83.50
2022-11-28T03:30:29.299Z,82.57
2022-11-28T03:33:43.408Z,83.27
2022-11-28T03:37:00.831Z,83.13
2022-11-28T03:40:16.919Z,82.48
2022-11-28T03:43:42.933Z,83.75
2022-11-28T03:46:52.927Z,84.58
2022-11-28T03:50:08.046Z,83.22
2022-11-28T03:53:23.881Z,83.79
2022-11-28T03:56:45.234Z,84.54
2022-11-28T03:59:56.334Z,84.14
2022-11-28T04:03:24.301Z,84.13
2022-11-28T04:06:45.602Z,84.15
2022-11-28T04:10:08.204Z,84.07
2022-11-28T04:13:25.055Z,84.17
2022-11-28T04:16:43.548Z,83.68
2022-11-28T04:20:00.934Z,83.92
2022-11-28T04:23:14.188Z,83.82
2022-11-28T04:26:30.157Z,83.19
2022-11-28T04:29:46.864Z,83.17
2022-11-28T04:33:02.777Z,82.97
2022-11-28T04:36:13.234Z,83.64
2022-11-28T04:39:26.314Z,83.03
2022-11-28T04:42:41.002Z,83.10
2022-11-28T04:45:57.278Z,82.58
2022-11-28T04:49:07.060Z,82.38
2022-11-28T04:52:22.345Z,82.61
2022-11-28T04:55:39.917Z,81.70
2022-11-28T04:58:51.946Z,82.59
2022-11-28T05:02:06.921Z,81.98
2022-11-28T05:05:22.646Z,82.64
2022-11-28T05:08:31.226Z,82.24
2022-11-28T05:11:40.130Z,82.31
2022-11-28T05:14:48.326Z,82.68
2022-11-28T05:17:57.855Z,82.33
2022-11-28T05:21:08.888Z,82.48
2022-11-28T05:24:17.353Z,82.59
2022-11-28T05:27:25.973Z,82.46
2022-11-28T05:30:34.793Z,82.61
2022-11-28T05:33:45.334Z,82.28
2022-11-28T05:36:53.632Z,83.16
2022-11-28T05:40:01.944Z,82.45
2022-11-28T05:43:10.303Z,83.00
2022-11-28T05:46:20.583Z,85.01
2022-11-28T05:49:31.402Z,86.01
2022-11-28T05:52:39.645Z,86.20
2022-11-28T05:55:49.029Z,86.35
2022-11-28T05:58:57.385Z,86.67
2022-11-28T06:02:05.946Z,86.05
2022-11-28T06:05:41.039Z,86.90
2022-11-28T06:08:45.539Z,85.66
2022-11-28T06:11:54.036Z,86.35
2022-11-28T06:15:02.470Z,86.50
2022-11-28T06:18:11.713Z,86.06
2022-11-28T06:21:22.372Z,87.17
2022-11-28T06:24:31.758Z,85.90
2022-11-28T06:27:40.013Z,85.41
2022-11-28T06:30:48.316Z,86.43
2022-11-28T06:33:56.578Z,86.52
2022-11-28T06:37:07.058Z,85.86
2022-11-28T06:40:16.201Z,85.28
2022-11-28T06:43:25.015Z,85.19
2022-11-28T06:46:34.933Z,84.44
2022-11-28T06:49:46.251Z,85.27
2022-11-28T06:52:57.150Z,85.58
2022-11-28T06:56:11.716Z,85.42
2022-11-28T06:59:20.067Z,85.03
2022-11-28T07:02:29.537Z,84.71
2022-11-28T07:05:37.803Z,83.65
2022-11-28T07:08:47.950Z,84.51
2022-11-28T07:11:56.308Z,84.10
2022-11-28T07:15:05.356Z,83.83
2022-11-28T07:18:13.717Z,83.43
2022-11-28T07:21:22.719Z,83.11
2022-11-28T07:35:16.285Z,82.37
2022-11-28T07:38:24.724Z,82.63
2022-11-28T07:41:34.526Z,81.16
2022-11-28T07:44:42.825Z,82.11
2022-11-28T07:47:51.053Z,82.89
2022-11-28T07:50:59.404Z,82.75
2022-11-28T07:54:09.092Z,81.56
2022-11-28T07:57:19.588Z,81.65
2022-11-28T08:00:28.322Z,81.48
2022-11-28T08:03:39.804Z,81.82
2022-11-28T08:06:48.023Z,81.27
2022-11-28T08:09:56.387Z,81.80
2022-11-28T08:13:08.681Z,80.83
2022-11-28T08:16:20.215Z,80.47
2022-11-28T08:19:33.769Z,80.66
2022-11-28T08:22:43.476Z,80.19
2022-11-28T08:25:51.743Z,79.79
2022-11-28T08:29:03.053Z,79.59
2022-11-28T08:32:11.347Z,79.53
2022-11-28T08:35:20.581Z,78.91
2022-11-28T08:38:28.917Z,78.80
2022-11-28T08:41:37.310Z,78.93
2022-11-28T08:44:47.492Z,80.07
2022-11-28T08:47:55.871Z,81.47
2022-11-28T08:51:05.023Z,79.25
2022-11-28T08:54:13.792Z,80.17
2022-11-28T08:57:22.139Z,79.34
2022-11-28T09:00:31.894Z,79.03
2022-11-28T09:03:40.573Z,77.96
2022-11-28T09:06:49.082Z,77.68
2022-11-28T09:09:57.769Z,76.67
2022-11-28T09:13:07.388Z,76.48
2022-11-28T09:16:19.947Z,77.26
2022-11-28T09:19:28.549Z,75.44
2022-11-28T09:22:36.818Z,75.94
2022-11-28T09:25:45.101Z,75.46
2022-11-28T09:28:54.695Z,74.24
2022-11-28T09:32:04.622Z,74.32
2022-11-28T09:35:13.260Z,73.66
2022-11-28T09:38:21.664Z,72.64
2022-11-28T09:42:06.485Z,72.90
2022-11-28T09:45:20.413Z,72.28
2022-11-28T09:48:36.340Z,71.91
2022-11-28T09:51:54.130Z,72.02
2022-11-28T09:55:15.417Z,72.45
2022-11-28T09:58:35.105Z,72.81
2022-11-28T10:01:57.492Z,72.77
2022-11-28T10:05:26.043Z,72.82
2022-11-28T10:08:48.345Z,73.25
2022-11-28T10:12:18.873Z,72.79
2022-11-28T10:15:45.614Z,73.97
2022-11-28T10:19:00.435Z,73.93
2022-11-28T10:22:18.369Z,74.48
2022-11-28T10:25:35.495Z,74.00
2022-11-28T10:28:51.070Z,71.97
2022-11-28T10:32:04.639Z,73.28
2022-11-28T10:35:28.508Z,72.38
2022-11-28T10:38:38.793Z,70.74
2022-11-28T10:42:13.793Z,72.57
2022-11-28T10:45:32.857Z,74.77
2022-11-28T10:48:53.068Z,74.67
2022-11-28T10:52:16.954Z,73.50
2022-11-28T10:55:44.120Z,71.53
2022-11-28T10:59:02.952Z,70.82
2022-11-28T11:02:22.944Z,70.06
2022-11-28T11:05:34.717Z,69.97
2022-11-28T11:08:43.517Z,69.69
2022-11-28T11:12:01.041Z,69.09
2022-11-28T11:15:24.367Z,68.23
2022-11-28T11:18:36.442Z,68.23
2022-11-28T11:22:07.687Z,67.67
2022-11-28T11:25:20.391Z,68.09
2022-11-28T11:28:42.381Z,67.69
2022-11-28T11:31:55.222Z,67.03
2022-11-28T11:35:05.116Z,67.18
2022-11-28T11:38:28.877Z,67.30
2022-11-28T11:41:44.760Z,65.93
2022-11-28T11:44:55.473Z,66.25
2022-11-28T11:48:05.793Z,66.17
2022-11-28T11:51:26.438Z,65.01
2022-11-28T11:54:34.933Z,65.54
2022-11-28T11:57:50.107Z,64.82
2022-11-28T12:01:02.540Z,64.11
2022-11-28T12:04:43.919Z,63.42
2022-11-28T12:08:01.552Z,63.83
2022-11-28T12:11:21.024Z,63.38
2022-11-28T12:14:33.227Z,64.04
2022-11-28T12:18:03.477Z,63.73
2022-11-28T12:21:15.784Z,63.82
2022-11-28T12:24:41.202Z,64.61
2022-11-28T12:28:05.794Z,66.34
2022-11-28T12:31:26.676Z,65.81
2022-11-28T12:34:53.328Z,65.93
2022-11-28T12:38:24.770Z,66.74
2022-11-28T12:42:02.634Z,66.76
2022-11-28T12:45:37.710Z,66.24
2022-11-28T12:49:09.534Z,66.26
2022-11-28T12:52:36.839Z,66.53
2022-11-28T12:55:52.933Z,66.80
2022-11-28T12:59:19.028Z,68.41
2022-11-28T13:02:40.546Z,68.90
2022-11-28T13:06:06.115Z,69.06
2022-11-28T13:09:31.059Z,69.90
2022-11-28T13:12:54.088Z,70.26
2022-11-28T13:16:14.804Z,70.04
2022-11-28T13:19:40.216Z,70.61
2022-11-28T13:23:15.001Z,70.10
2022-11-28T13:26:46.579Z,70.22
2022-11-28T13:30:10.996Z,70.60
2022-11-28T13:33:38.712Z,69.62
2022-11-28T13:40:34.705Z,70.99
2022-11-28T13:43:54.781Z,71.47
2022-11-28T13:47:29.378Z,72.61
2022-11-28T13:50:59.857Z,73.34
2022-11-28T13:54:45.952Z,74.41
2022-11-28T13:57:55.747Z,74.77
2022-11-28T14:01:11.015Z,75.22
2022-11-28T14:04:21.163Z,76.27
2022-11-28T14:07:34.452Z,76.49
2022-11-28T14:11:34.823Z,76.20
2022-11-28T14:15:27.201Z,76.38
2022-11-28T14:19:01.258Z,76.05
2022-11-28T14:22:33.222Z,75.47
2022-11-28T14:25:46.207Z,76.71
2022-11-28T14:28:55.246Z,77.18
2022-11-28T14:36:22.070Z,77.49
2022-11-28T14:39:35.648Z,77.49
2022-11-28T14:42:59.981Z,77.98
2022-11-28T14:46:33.637Z,78.06
2022-11-28T14:49:42.284Z,78.49
2022-11-28T14:53:31.156Z,78.93
2022-11-28T14:56:42.013Z,78.75
2022-11-28T14:59:51.502Z,79.21
2022-11-28T15:03:29.191Z,79.06
2022-11-28T15:06:41.373Z,79.80
2022-11-28T15:10:07.540Z,80.36
2022-11-28T15:13:36.813Z,80.88
2022-11-28T15:16:50.740Z,80.79
2022-11-28T15:20:14.430Z,80.74
2022-11-28T15:23:30.495Z,81.15
2022-11-28T15:26:41.336Z,81.68
2022-11-28T15:29:57.716Z,81.31
2022-11-28T15:33:06.843Z,81.89
2022-11-28T15:36:28.624Z,81.71
2022-11-28T15:39:41.520Z,81.20
2022-11-28T15:42:52.651Z,81.76
2022-11-28T15:46:03.661Z,81.92
2022-11-28T15:49:30.331Z,81.59
2022-11-28T15:52:39.465Z,81.61
2022-11-28T15:55:49.083Z,82.14
2022-11-28T15:58:59.598Z,82.14
2022-11-28T16:02:23.029Z,82.26
2022-11-28T16:05:31.987Z,81.82
2022-11-28T16:08:49.795Z,82.06
2022-11-28T16:11:58.673Z,81.94
2022-11-28T16:15:19.743Z,82.02
2022-11-28T16:18:30.502Z,82.06
2022-11-28T16:21:46.491Z,82.37
2022-11-28T16:24:57.502Z,82.48
2022-11-28T16:28:06.586Z,82.45
2022-11-28T16:31:24.226Z,82.15
2022-11-28T16:34:51.350Z,82.07
2022-11-28T16:38:07.429Z,82.30
2022-11-28T16:41:23.647Z,81.75
2022-11-28T16:44:33.654Z,81.96
2022-11-28T16:47:45.657Z,81.66
2022-11-28T16:51:37.834Z,82.20
2022-11-28T16:54:46.254Z,82.39
2022-11-28T16:58:03.872Z,81.65
2022-11-28T17:01:12.170Z,82.47
2022-11-28T17:04:25.418Z,82.23
2022-11-28T17:07:34.895Z,82.17
2022-11-28T17:10:43.294Z,82.37
2022-11-28T17:13:51.998Z,82.36
2022-11-28T17:17:01.155Z,82.28
2022-11-28T17:20:14.605Z,81.78
2022-11-28T17:23:26.350Z,81.91
2022-11-28T17:26:34.830Z,82.05
2022-11-28T17:29:44.008Z,82.15
2022-11-28T17:32:53.012Z,81.90
2022-11-28T17:36:04.892Z,82.16
2022-11-28T17:39:14.103Z,82.61
2022-11-28T17:42:22.481Z,82.28
2022-11-28T17:45:36.933Z,82.13
2022-11-28T17:48:45.242Z,82.48
2022-11-28T17:51:56.838Z,82.32
2022-11-28T17:55:07.351Z,81.64
2022-11-28T17:58:19.080Z,82.10
2022-11-28T18:01:31.295Z,82.75
2022-11-28T18:04:42.311Z,82.96
2022-11-28T18:07:52.037Z,82.56
2022-11-28T18:11:05.235Z,82.72
2022-11-28T18:14:14.090Z,82.98
2022-11-28T18:17:22.422Z,83.33
2022-11-28T18:20:31.861Z,83.23
2022-11-28T18:23:43.127Z,83.75
2022-11-28T18:26:53.283Z,83.08
2022-11-28T18:30:02.219Z,83.23
2022-11-28T18:33:11.193Z,83.43
2022-11-28T18:36:24.287Z,82.99
2022-11-28T18:39:34.883Z,83.39
2022-11-28T18:42:44.525Z,83.68
2022-11-28T18:45:52.773Z,83.80
2022-11-28T18:49:01.623Z,83.50
2022-11-28T18:52:10.104Z,83.49
2022-11-28T18:55:21.025Z,83.68
2022-11-28T18:58:30.816Z,83.72
2022-11-28T19:01:39.259Z,83.88
2022-11-28T19:04:47.739Z,83.84
2022-11-28T19:07:58.044Z,83.35
2022-11-28T19:11:10.812Z,83.31
2022-11-28T19:14:21.162Z,83.67
2022-11-28T19:17:30.515Z,83.64
2022-11-28T19:20:44.357Z,84.30
2022-11-28T19:23:56.102Z,84.03
2022-11-28T19:27:12.535Z,84.02
2022-11-28T19:30:24.112Z,83.47
2022-11-28T19:33:36.979Z,83.70
2022-11-28T19:36:52.431Z,83.61
2022-11-28T19:40:03.069Z,84.08
2022-11-28T19:43:15.223Z,83.76
2022-11-28T19:46:24.055Z,84.38
2022-11-28T19:49:32.336Z,83.63
2022-11-28T19:52:41.430Z,83.35
2022-11-28T19:55:50.525Z,84.13
2022-11-28T19:59:00.916Z,84.69
2022-11-28T20:02:10.937Z,84.19
2022-11-28T20:05:19.584Z,84.50
2022-11-28T20:08:29.794Z,84.91
2022-11-28T20:11:39.321Z,84.81
2022-11-28T20:14:48.916Z,84.87
2022-11-28T20:17:57.279Z,84.69
2022-11-28T20:21:08.272Z,84.32
2022-11-28T20:24:17.176Z,84.26
2022-11-28T20:27:27.454Z,84.72
2022-11-28T20:30:38.473Z,84.14
2022-11-28T20:33:47.056Z,84.18
2022-11-28T20:36:59.316Z,84.34
2022-11-28T20:40:09.819Z,84.40
2022-11-28T20:43:18.179Z,84.97
2022-11-28T20:46:30.862Z,84.30
2022-11-28T20:49:39.189Z,85.05
2022-11-28T20:52:47.695Z,84.59
2022-11-28T20:56:03.887Z,83.82
2022-11-28T20:59:17.862Z,83.86
2022-11-28T21:02:27.992Z,84.31
2022-11-28T21:05:36.594Z,83.78
2022-11-28T21:08:47.384Z,83.79
2022-11-28T21:11:58.100Z,83.93
2022-11-28T21:15:08.891Z,83.33
2022-11-28T21:18:18.570Z,83.82
2022-11-28T21:21:31.261Z,84.20
2022-11-28T21:24:39.689Z,84.18
2022-11-28T21:27:47.953Z,84.08
2022-11-28T21:30:56.203Z,83.96
2022-11-28T21:34:06.091Z,84.23
2022-11-28T21:37:14.381Z,84.02
2022-11-28T21:40:22.898Z,83.80
2022-11-28T21:43:31.855Z,83.81
2022-11-28T21:46:40.160Z,83.31
2022-11-28T21:49:49.949Z,83.40
2022-11-28T21:52:59.552Z,84.11
2022-11-28T21:56:10.306Z,83.86
2022-11-28T21:59:18.636Z,83.91
2022-11-28T22:02:30.918Z,84.32
2022-11-28T22:05:40.707Z,84.06
2022-11-28T22:08:49.752Z,84.26
2022-11-28T22:11:58.130Z,84.21
2022-11-28T22:15:07.488Z,84.41
2022-11-28T22:18:15.867Z,84.59
2022-11-28T22:21:51.985Z,84.27
2022-11-28T22:24:56.332Z,84.44
2022-11-28T22:28:05.408Z,84.11
2022-11-28T22:31:16.315Z,84.17
2022-11-28T22:34:24.588Z,84.56
2022-11-28T22:37:34.406Z,85.26
2022-11-28T22:40:42.859Z,85.04
2022-11-28T22:43:52.532Z,84.69
2022-11-28T22:47:01.157Z,84.94
2022-11-28T22:50:11.529Z,84.99
2022-11-28T22:53:21.199Z,85.61
2022-11-28T22:56:31.873Z,85.45
2022-11-28T22:59:40.547Z,85.49
2022-11-28T23:02:49.405Z,85.41
2022-11-28T23:05:57.739Z,85.28
2022-11-28T23:09:12.943Z,85.41
2022-11-28T23:12:21.318Z,85.66
2022-11-28T23:15:29.794Z,85.29
2022-11-28T23:18:38.753Z,85.43
2022-11-28T23:21:50.257Z,85.30
2022-11-28T23:25:02.100Z,85.61
2022-11-28T23:28:10.390Z,85.83
2022-11-28T23:31:22.642Z,85.25
2022-11-28T23:34:31.185Z,85.70
2022-11-28T23:37:41.876Z,85.27
2022-11-28T23:40:57.778Z,85.21
2022-11-28T23:44:06.635Z,85.60
2022-11-28T23:47:15.083Z,85.70
2022-11-28T23:50:23.614Z,85.55
2022-11-28T23:53:32.050Z,86.06
2022-11-28T23:56:45.245Z,85.81
2022-11-28T23:59:53.520Z,85.59
